ěÝzenÝ letovÚho provozu ╚eskÚ republiky
Letiste: LKVO Aktualizace: 29.07.2021 12:01:29  UTC
 METAR LKVO 29.07. 12:00 ...
METAR LKVO 291200Z 26011KT 190V310 CAVOK 24/11 Q1014=